createdAt,value
2022-12-03T00:01:46.260Z,-3.50
2022-12-03T00:04:35.461Z,-3.70
2022-12-03T00:07:24.888Z,-3.30
2022-12-03T00:10:14.793Z,-3.40
2022-12-03T00:13:04.200Z,-3.20
2022-12-03T00:15:53.641Z,-3.20
2022-12-03T00:18:44.481Z,-3.10
2022-12-03T00:21:33.732Z,-3.30
2022-12-03T00:24:23.676Z,-3.10
2022-12-03T00:27:13.078Z,-3.10
2022-12-03T00:30:02.229Z,-3.10
2022-12-03T00:32:51.618Z,-3.40
2022-12-03T00:35:42.310Z,-2.90
2022-12-03T00:38:31.828Z,-3.30
2022-12-03T00:41:21.430Z,-3.10
2022-12-03T00:44:12.222Z,-3.20
2022-12-03T00:47:01.591Z,-3.10
2022-12-03T00:49:51.051Z,-3.10
2022-12-03T00:52:41.772Z,-3.00
2022-12-03T00:55:31.031Z,-3.00
2022-12-03T00:58:20.683Z,-3.00
2022-12-03T01:01:10.025Z,-3.10
2022-12-03T01:03:59.292Z,-2.80
2022-12-03T01:06:48.588Z,-3.20
2022-12-03T01:09:39.437Z,-2.90
2022-12-03T01:12:28.781Z,-2.80
2022-12-03T01:15:18.264Z,-3.00
2022-12-03T01:18:07.743Z,-2.90
2022-12-03T01:20:57.105Z,-3.30
2022-12-03T01:23:46.494Z,-3.00
2022-12-03T01:26:37.386Z,-3.20
2022-12-03T01:29:26.921Z,-2.80
2022-12-03T01:32:17.937Z,-2.70
2022-12-03T01:35:08.317Z,-2.80
2022-12-03T01:37:58.384Z,-2.90
2022-12-03T01:40:47.826Z,-2.90
2022-12-03T01:43:39.753Z,-2.90
2022-12-03T01:46:35.035Z,-2.90
2022-12-03T01:49:27.866Z,-3.00
2022-12-03T01:52:19.907Z,-2.70
2022-12-03T01:55:15.350Z,-2.90
2022-12-03T01:58:05.794Z,-2.80
2022-12-03T02:00:57.954Z,-2.90
2022-12-03T02:03:48.266Z,-2.90
2022-12-03T02:06:37.582Z,-3.10
2022-12-03T02:09:26.915Z,-3.30
2022-12-03T02:12:17.882Z,-3.10
2022-12-03T02:14:47.881Z,-3.40
2022-12-03T02:20:03.112Z,-3.10
2022-12-03T02:23:02.983Z,-3.00
2022-12-03T02:25:53.653Z,-3.10
2022-12-03T02:28:43.045Z,-3.60
2022-12-03T02:31:34.422Z,-3.30
2022-12-03T02:34:38.428Z,-3.40
2022-12-03T02:37:32.389Z,-3.20
2022-12-03T02:40:23.866Z,-3.40
2022-12-03T02:43:16.954Z,-3.20
2022-12-03T02:46:09.466Z,-3.30
2022-12-03T02:48:59.869Z,-3.20
2022-12-03T02:51:49.145Z,-3.30
2022-12-03T02:54:38.545Z,-3.10
2022-12-03T02:57:28.054Z,-3.20
2022-12-03T03:00:23.466Z,-3.10
2022-12-03T03:03:13.273Z,-3.10
2022-12-03T03:06:04.985Z,-3.00
2022-12-03T03:08:54.605Z,-3.00
2022-12-03T03:11:44.110Z,-3.30
2022-12-03T03:14:34.870Z,-2.90
2022-12-03T03:17:25.766Z,-2.60
2022-12-03T03:20:16.278Z,-2.80
2022-12-03T03:23:15.464Z,-2.80
2022-12-03T03:26:09.986Z,-2.90
2022-12-03T03:29:00.553Z,-2.80
2022-12-03T03:31:50.265Z,-2.70
2022-12-03T03:34:41.334Z,-2.80
2022-12-03T03:37:30.755Z,-2.80
2022-12-03T03:40:20.273Z,-2.60
2022-12-03T03:43:09.820Z,-3.10
2022-12-03T03:45:59.329Z,-3.20
2022-12-03T03:48:49.855Z,-2.90
2022-12-03T03:51:41.491Z,-2.80
2022-12-03T03:54:31.017Z,-3.00
2022-12-03T03:57:20.335Z,-3.00
2022-12-03T04:00:11.509Z,-2.90
2022-12-03T04:03:00.658Z,-2.90
2022-12-03T04:05:51.459Z,-2.70
2022-12-03T04:08:42.539Z,-2.80
2022-12-03T04:11:49.062Z,-2.90
2022-12-03T04:14:38.299Z,-2.80
2022-12-03T04:17:27.679Z,-2.90
2022-12-03T04:20:17.479Z,-3.00
2022-12-03T04:23:06.408Z,-2.70
2022-12-03T04:26:14.544Z,-3.00
2022-12-03T04:29:03.837Z,-3.40
2022-12-03T04:32:10.326Z,-3.00
2022-12-03T04:35:28.391Z,-3.00
2022-12-03T04:38:18.568Z,-3.00
2022-12-03T04:41:09.434Z,-3.20
2022-12-03T04:44:15.978Z,-2.80
2022-12-03T04:47:11.155Z,-2.90
2022-12-03T04:50:00.483Z,-2.80
2022-12-03T04:52:49.840Z,-2.90
2022-12-03T04:55:39.114Z,-2.80
2022-12-03T04:58:30.080Z,-2.80
2022-12-03T05:01:19.426Z,-3.00
2022-12-03T05:04:08.837Z,-3.00
2022-12-03T05:06:58.076Z,-2.70
2022-12-03T05:09:47.238Z,-2.60
2022-12-03T05:12:36.424Z,-2.90
2022-12-03T05:15:27.107Z,-2.60
2022-12-03T05:18:16.499Z,-2.60
2022-12-03T05:21:05.778Z,-2.50
2022-12-03T05:23:55.007Z,-2.60
2022-12-03T05:26:44.714Z,-2.60
2022-12-03T05:29:33.924Z,-2.70
2022-12-03T05:32:24.882Z,-2.70
2022-12-03T05:35:14.175Z,-2.60
2022-12-03T05:38:03.387Z,-2.50
2022-12-03T05:40:52.590Z,-2.50
2022-12-03T05:43:40.804Z,-2.80
2022-12-03T05:46:30.151Z,-2.50
2022-12-03T05:49:20.987Z,-2.60
2022-12-03T05:52:10.301Z,-2.50
2022-12-03T05:54:59.560Z,-2.50
2022-12-03T05:57:49.137Z,-2.50
2022-12-03T06:00:42.661Z,-2.80
2022-12-03T06:03:32.780Z,-2.30
2022-12-03T06:06:23.656Z,-2.50
2022-12-03T06:09:12.929Z,-2.70
2022-12-03T06:12:02.187Z,-2.50
2022-12-03T06:14:53.084Z,-2.40
2022-12-03T06:17:42.974Z,-2.50
2022-12-03T06:20:32.369Z,-2.40
2022-12-03T06:23:23.326Z,-2.80
2022-12-03T06:26:12.774Z,-2.70
2022-12-03T06:29:02.046Z,-2.60
2022-12-03T06:31:51.338Z,-2.30
2022-12-03T06:34:41.058Z,-2.60
2022-12-03T06:37:30.250Z,-2.50
2022-12-03T06:40:21.200Z,-2.70
2022-12-03T06:43:10.689Z,-2.50
2022-12-03T06:45:59.919Z,-2.70
2022-12-03T06:48:49.265Z,-2.50
2022-12-03T06:51:38.737Z,-2.30
2022-12-03T06:54:27.987Z,-2.40
2022-12-03T06:57:18.588Z,-2.40
2022-12-03T07:00:09.984Z,-2.30
2022-12-03T07:02:59.395Z,-2.10
2022-12-03T07:05:49.184Z,-2.20
2022-12-03T07:08:38.677Z,-2.20
2022-12-03T07:11:39.935Z,-2.10
2022-12-03T07:14:30.564Z,-2.20
2022-12-03T07:17:19.718Z,-2.20
2022-12-03T07:20:10.653Z,-2.20
2022-12-03T07:22:59.918Z,-2.50
2022-12-03T07:25:49.092Z,-2.10
2022-12-03T07:28:38.352Z,-2.20
2022-12-03T07:31:29.178Z,-2.20
2022-12-03T07:34:18.457Z,-2.10
2022-12-03T07:37:07.682Z,-2.10
2022-12-03T07:39:56.993Z,-2.00
2022-12-03T07:42:46.248Z,-2.00
2022-12-03T07:45:35.449Z,-1.90
2022-12-03T07:48:26.254Z,-2.00
2022-12-03T07:51:15.752Z,-1.80
2022-12-03T07:54:05.352Z,-1.80
2022-12-03T07:56:58.118Z,-1.90
2022-12-03T07:59:50.572Z,-1.80
2022-12-03T08:02:39.891Z,-1.70
2022-12-03T08:05:31.193Z,-1.60
2022-12-03T08:08:20.597Z,-1.60
2022-12-03T08:11:14.468Z,-1.70
2022-12-03T08:14:09.148Z,-1.60
2022-12-03T08:16:58.379Z,-1.40
2022-12-03T08:19:48.985Z,-1.50
2022-12-03T08:22:39.587Z,-1.50
2022-12-03T08:25:32.785Z,-1.50
2022-12-03T08:28:24.220Z,-1.40
2022-12-03T08:31:20.420Z,-1.30
2022-12-03T08:34:19.266Z,-1.30
2022-12-03T08:37:16.587Z,-1.40
2022-12-03T08:40:24.616Z,-1.40
2022-12-03T08:43:18.065Z,-1.30
2022-12-03T08:46:13.133Z,-1.30
2022-12-03T08:49:02.419Z,-1.40
2022-12-03T08:51:58.945Z,-1.30
2022-12-03T08:54:53.311Z,-1.20
2022-12-03T08:57:44.946Z,-1.30
2022-12-03T09:00:34.255Z,-1.20
2022-12-03T09:03:23.466Z,-1.10
2022-12-03T09:06:12.696Z,-1.20
2022-12-03T09:09:06.609Z,-1.10
2022-12-03T09:11:56.701Z,-1.00
2022-12-03T09:14:47.501Z,-0.90
2022-12-03T09:17:37.161Z,-0.90
2022-12-03T09:20:26.460Z,-0.80
2022-12-03T09:23:15.609Z,-0.70
2022-12-03T09:26:04.881Z,-0.60
2022-12-03T09:28:54.063Z,-0.50
2022-12-03T09:31:44.767Z,-0.60
2022-12-03T09:34:35.023Z,-0.50
2022-12-03T09:37:24.232Z,-0.60
2022-12-03T09:40:14.683Z,-0.60
2022-12-03T09:43:03.963Z,-0.60
2022-12-03T09:45:53.306Z,-0.80
2022-12-03T09:48:44.093Z,-0.50
2022-12-03T09:51:37.039Z,-0.60
2022-12-03T09:54:28.979Z,-0.60
2022-12-03T09:57:19.898Z,-0.60
2022-12-03T10:00:19.057Z,-0.60
2022-12-03T10:03:10.329Z,-0.50
2022-12-03T10:06:01.058Z,-0.60
2022-12-03T10:08:52.434Z,-0.50
2022-12-03T10:11:41.823Z,-0.50
2022-12-03T10:14:31.598Z,-0.40
2022-12-03T10:17:20.855Z,-0.50
2022-12-03T10:20:14.494Z,-0.40
2022-12-03T10:23:05.293Z,-0.50
2022-12-03T10:25:56.707Z,-0.50
2022-12-03T10:28:47.933Z,-0.50
2022-12-03T10:31:38.180Z,-0.50
2022-12-03T10:34:30.820Z,-0.50
2022-12-03T10:37:21.781Z,-0.60
2022-12-03T10:40:14.322Z,-0.50
2022-12-03T10:43:18.482Z,-0.40
2022-12-03T10:46:17.737Z,-0.50
2022-12-03T10:49:12.074Z,-0.40
2022-12-03T10:52:01.473Z,-0.30
2022-12-03T10:54:52.268Z,-0.20
2022-12-03T10:57:45.897Z,-0.10
2022-12-03T11:00:35.698Z,0.00
2022-12-03T11:03:26.886Z,0.10
2022-12-03T11:06:18.518Z,0.00
2022-12-03T11:09:18.216Z,0.10
2022-12-03T11:12:09.431Z,0.10
2022-12-03T11:15:08.510Z,0.20
2022-12-03T11:17:57.716Z,0.00
2022-12-03T11:21:09.098Z,-0.10
2022-12-03T11:24:22.828Z,-0.10
2022-12-03T11:27:21.504Z,0.00
2022-12-03T11:30:13.054Z,0.00
2022-12-03T11:33:03.121Z,0.00
2022-12-03T11:36:41.984Z,0.00
2022-12-03T11:40:05.326Z,0.10
2022-12-03T11:42:54.620Z,0.20
2022-12-03T11:45:45.311Z,0.20
2022-12-03T11:48:34.706Z,0.20
2022-12-03T11:51:25.848Z,0.20
2022-12-03T11:54:17.967Z,0.30
2022-12-03T11:57:27.149Z,0.30
2022-12-03T12:00:21.806Z,0.40
2022-12-03T12:03:24.529Z,0.40
2022-12-03T12:06:15.778Z,0.40
2022-12-03T12:09:05.155Z,0.40
2022-12-03T12:11:54.407Z,0.40
2022-12-03T12:14:43.698Z,0.40
2022-12-03T12:17:35.464Z,0.50
2022-12-03T12:20:28.225Z,0.40
2022-12-03T12:23:29.408Z,0.50
2022-12-03T12:26:18.676Z,0.50
2022-12-03T12:29:09.324Z,0.50
2022-12-03T12:32:08.403Z,0.50
2022-12-03T12:35:01.662Z,0.50
2022-12-03T12:37:59.758Z,0.60
2022-12-03T12:40:51.800Z,0.60
2022-12-03T12:43:41.789Z,0.70
2022-12-03T12:46:47.662Z,0.60
2022-12-03T12:49:37.738Z,0.60
2022-12-03T12:52:27.523Z,0.60
2022-12-03T12:55:18.507Z,0.60
2022-12-03T12:58:13.275Z,0.70
2022-12-03T13:01:07.309Z,0.60
2022-12-03T13:03:57.079Z,0.50
2022-12-03T13:06:48.381Z,0.50
2022-12-03T13:09:37.628Z,0.50
2022-12-03T13:12:28.419Z,0.60
2022-12-03T13:15:40.658Z,0.60
2022-12-03T13:18:36.814Z,0.60
2022-12-03T13:21:33.984Z,0.60
2022-12-03T13:24:33.733Z,0.60
2022-12-03T13:27:27.313Z,0.60
2022-12-03T13:30:18.766Z,0.70
2022-12-03T13:33:15.492Z,0.80
2022-12-03T13:36:07.668Z,0.70
2022-12-03T13:38:56.935Z,0.70
2022-12-03T13:42:06.421Z,0.70
2022-12-03T13:44:56.208Z,0.70
2022-12-03T13:47:48.918Z,0.70
2022-12-03T13:50:39.423Z,0.70
2022-12-03T13:53:30.809Z,0.70
2022-12-03T13:56:27.578Z,0.70
2022-12-03T13:59:20.375Z,0.60
2022-12-03T14:02:13.230Z,0.60
2022-12-03T14:05:04.240Z,0.60
2022-12-03T14:07:53.458Z,0.60
2022-12-03T14:10:43.018Z,0.60
2022-12-03T14:13:32.471Z,0.70
2022-12-03T14:16:21.680Z,0.70
2022-12-03T14:19:11.145Z,0.70
2022-12-03T14:22:02.029Z,0.70
2022-12-03T14:24:51.425Z,0.70
2022-12-03T14:27:40.748Z,0.70
2022-12-03T14:30:30.259Z,0.60
2022-12-03T14:33:19.509Z,0.70
2022-12-03T14:36:09.662Z,0.70
2022-12-03T14:39:00.454Z,0.70
2022-12-03T14:42:06.830Z,0.70
2022-12-03T14:44:56.117Z,0.70
2022-12-03T14:47:45.430Z,0.70
2022-12-03T14:50:34.908Z,0.70
2022-12-03T14:53:27.506Z,0.70
2022-12-03T14:56:18.504Z,0.70
2022-12-03T14:59:08.030Z,0.60
2022-12-03T15:01:57.619Z,0.60
2022-12-03T15:04:47.067Z,0.60
2022-12-03T15:07:36.742Z,0.60
2022-12-03T15:10:25.962Z,0.60
2022-12-03T15:13:16.914Z,0.60
2022-12-03T15:16:06.733Z,0.70
2022-12-03T15:18:56.013Z,0.60
2022-12-03T15:21:45.446Z,0.70
2022-12-03T15:24:34.777Z,0.70
2022-12-03T15:27:23.987Z,0.80
2022-12-03T15:30:14.884Z,0.70
2022-12-03T15:33:04.355Z,0.80
2022-12-03T15:35:53.686Z,0.80
2022-12-03T15:38:43.238Z,0.80
2022-12-03T15:41:33.429Z,0.80
2022-12-03T15:44:22.576Z,0.80
2022-12-03T15:47:13.642Z,0.80
2022-12-03T15:50:03.027Z,0.80
2022-12-03T15:52:52.166Z,0.80
2022-12-03T15:55:41.836Z,0.70
2022-12-03T15:58:31.022Z,0.80
2022-12-03T16:01:20.355Z,0.80
2022-12-03T16:04:11.468Z,0.80
2022-12-03T16:07:00.799Z,0.70
2022-12-03T16:09:50.271Z,0.70
2022-12-03T16:12:39.820Z,0.60
2022-12-03T16:15:29.543Z,0.70
2022-12-03T16:18:19.364Z,0.80
2022-12-03T16:21:10.142Z,0.70
2022-12-03T16:24:01.052Z,0.70
2022-12-03T16:26:50.828Z,0.70
2022-12-03T16:29:40.022Z,0.70
2022-12-03T16:32:29.282Z,0.70
2022-12-03T16:35:19.183Z,0.70
2022-12-03T16:38:10.409Z,0.70
2022-12-03T16:40:59.763Z,0.70
2022-12-03T16:43:49.302Z,0.60
2022-12-03T16:46:38.793Z,0.70
2022-12-03T16:49:27.923Z,0.70
2022-12-03T16:52:17.742Z,0.80
2022-12-03T16:55:10.425Z,0.80
2022-12-03T16:57:59.886Z,0.80
2022-12-03T17:00:50.209Z,0.70
2022-12-03T17:03:39.358Z,0.70
2022-12-03T17:06:28.620Z,0.70
2022-12-03T17:09:17.977Z,0.70
2022-12-03T17:12:09.366Z,0.80
2022-12-03T17:14:58.773Z,0.70
2022-12-03T17:17:47.945Z,0.80
2022-12-03T17:20:37.386Z,0.70
2022-12-03T17:23:26.546Z,0.70
2022-12-03T17:26:15.665Z,0.80
2022-12-03T17:29:06.637Z,0.90
2022-12-03T17:31:56.534Z,0.80
2022-12-03T17:34:45.753Z,0.80
2022-12-03T17:37:35.040Z,0.80
2022-12-03T17:40:25.058Z,0.90
2022-12-03T17:43:14.931Z,0.90
2022-12-03T17:46:07.427Z,0.90
2022-12-03T17:48:56.809Z,0.90
2022-12-03T17:51:46.063Z,0.80
2022-12-03T17:55:01.908Z,0.80
2022-12-03T17:57:47.651Z,0.80
2022-12-03T18:00:39.513Z,0.90
2022-12-03T18:03:30.588Z,0.90
2022-12-03T18:06:20.374Z,0.90
2022-12-03T18:09:09.664Z,0.90
2022-12-03T18:11:59.220Z,0.80
2022-12-03T18:14:48.750Z,0.90
2022-12-03T18:17:38.351Z,0.90
2022-12-03T18:20:29.431Z,0.90
2022-12-03T18:23:19.682Z,0.90
2022-12-03T18:26:09.867Z,0.90
2022-12-03T18:28:59.375Z,0.90
2022-12-03T18:31:48.844Z,0.90
2022-12-03T18:34:38.413Z,0.90
2022-12-03T18:37:31.149Z,1.00
2022-12-03T18:40:23.852Z,0.90
2022-12-03T18:43:14.818Z,0.90
2022-12-03T18:46:07.756Z,0.90
2022-12-03T18:49:02.170Z,0.90
2022-12-03T18:51:58.719Z,1.00
2022-12-03T18:54:50.826Z,0.90
2022-12-03T18:57:40.471Z,1.00
2022-12-03T19:00:32.322Z,1.00
2022-12-03T19:03:22.105Z,1.00
2022-12-03T19:06:18.829Z,1.00
2022-12-03T19:09:08.843Z,1.00
2022-12-03T19:12:00.071Z,1.00
2022-12-03T19:14:51.878Z,1.00
2022-12-03T19:17:42.298Z,1.00
2022-12-03T19:20:32.429Z,1.10
2022-12-03T19:23:22.140Z,1.10
2022-12-03T19:26:13.931Z,1.10
2022-12-03T19:29:07.811Z,1.10
2022-12-03T19:31:57.693Z,1.10
2022-12-03T19:34:47.575Z,1.00
2022-12-03T19:37:37.319Z,1.00
2022-12-03T19:40:26.842Z,1.10
2022-12-03T19:43:16.424Z,1.10
2022-12-03T19:46:09.930Z,1.00
2022-12-03T19:49:00.252Z,1.00
2022-12-03T19:51:50.631Z,1.00
2022-12-03T19:54:47.168Z,1.00
2022-12-03T19:57:42.050Z,1.00
2022-12-03T20:00:31.852Z,1.00
2022-12-03T20:03:24.230Z,1.00
2022-12-03T20:06:15.125Z,1.10
2022-12-03T20:09:08.951Z,1.00
2022-12-03T20:12:01.186Z,0.90
2022-12-03T20:14:52.552Z,1.00
2022-12-03T20:17:44.055Z,1.00
2022-12-03T20:20:35.311Z,1.10
2022-12-03T20:23:29.952Z,1.00
2022-12-03T20:26:22.855Z,1.10
2022-12-03T20:29:13.144Z,1.00
2022-12-03T20:32:08.263Z,1.10
2022-12-03T20:34:57.707Z,1.00
2022-12-03T20:37:49.006Z,1.10
2022-12-03T20:40:43.624Z,1.10
2022-12-03T20:43:33.546Z,1.00
2022-12-03T20:46:35.482Z,1.00
2022-12-03T20:49:28.732Z,1.10
2022-12-03T20:52:18.429Z,1.10
2022-12-03T20:55:13.139Z,1.00
2022-12-03T20:58:03.476Z,1.00
2022-12-03T21:00:52.962Z,1.10
2022-12-03T21:03:43.436Z,1.00
2022-12-03T21:06:35.003Z,1.10
2022-12-03T21:09:24.690Z,1.10
2022-12-03T21:12:15.510Z,1.10
2022-12-03T21:15:05.305Z,1.10
2022-12-03T21:17:55.528Z,1.10
2022-12-03T21:20:47.117Z,1.10
2022-12-03T21:23:37.375Z,1.10
2022-12-03T21:26:27.032Z,1.10
2022-12-03T21:29:18.951Z,1.10
2022-12-03T21:32:08.322Z,1.10
2022-12-03T21:34:57.572Z,1.20
2022-12-03T21:37:46.761Z,1.20
2022-12-03T21:40:37.573Z,1.20
2022-12-03T21:43:27.664Z,1.20
2022-12-03T21:47:09.876Z,1.20
2022-12-03T21:49:28.907Z,1.30
2022-12-03T21:52:18.144Z,1.20
2022-12-03T21:55:08.588Z,1.30
2022-12-03T21:57:59.473Z,1.20
2022-12-03T22:00:48.718Z,1.20
2022-12-03T22:03:40.744Z,1.20
2022-12-03T22:06:30.016Z,1.30
2022-12-03T22:09:23.244Z,1.30
2022-12-03T22:12:16.190Z,1.30
2022-12-03T22:15:06.974Z,1.30
2022-12-03T22:17:56.467Z,1.30
2022-12-03T22:20:47.399Z,1.30
2022-12-03T22:23:36.783Z,1.30
2022-12-03T22:26:25.994Z,1.30
2022-12-03T22:29:15.213Z,1.30
2022-12-03T22:32:04.809Z,1.40
2022-12-03T22:34:54.339Z,1.30
2022-12-03T22:37:45.308Z,1.30
2022-12-03T22:40:34.590Z,1.20
2022-12-03T22:43:24.437Z,1.30
2022-12-03T22:46:14.158Z,1.30
2022-12-03T22:49:07.404Z,1.30
2022-12-03T22:52:00.245Z,1.30
2022-12-03T22:54:51.574Z,1.20
2022-12-03T22:57:40.814Z,1.20
2022-12-03T23:00:32.285Z,1.30
2022-12-03T23:03:21.837Z,1.20
2022-12-03T23:06:12.421Z,1.20
2022-12-03T23:09:01.787Z,1.20
2022-12-03T23:11:52.469Z,1.30
2022-12-03T23:14:41.771Z,1.30
2022-12-03T23:17:31.519Z,1.30
2022-12-03T23:20:21.077Z,1.30
2022-12-03T23:23:10.540Z,1.30
2022-12-03T23:26:00.966Z,1.30
2022-12-03T23:28:51.643Z,1.30
2022-12-03T23:31:40.875Z,1.40
2022-12-03T23:34:31.220Z,1.30
2022-12-03T23:37:20.492Z,1.30
2022-12-03T23:40:13.941Z,1.30
2022-12-03T23:43:03.286Z,1.30
2022-12-03T23:46:05.492Z,1.30
2022-12-03T23:48:55.418Z,1.30
2022-12-03T23:51:44.541Z,1.30
2022-12-03T23:54:33.893Z,1.30
2022-12-03T23:57:23.172Z,1.30
